createdAt,value
2019-05-30T00:00:27.503Z,8.42
2019-05-30T00:01:25.978Z,8.48
2019-05-30T00:02:28.036Z,8.39
2019-05-30T00:03:28.015Z,8.39
2019-05-30T00:04:28.474Z,8.35
2019-05-30T00:05:34.481Z,8.36
2019-05-30T00:06:28.481Z,8.39
2019-05-30T00:07:27.052Z,8.39
2019-05-30T00:08:29.282Z,8.37
2019-05-30T00:09:28.369Z,8.37
2019-05-30T00:10:27.576Z,8.40
2019-05-30T00:11:28.827Z,8.36
2019-05-30T00:12:27.902Z,8.44
2019-05-30T00:13:30.041Z,8.33
2019-05-30T00:14:28.248Z,8.30
2019-05-30T00:15:31.975Z,8.30
2019-05-30T00:16:30.495Z,8.33
2019-05-30T00:17:28.811Z,8.29
2019-05-30T00:18:29.067Z,8.32
2019-05-30T00:19:34.999Z,8.17
2019-05-30T00:20:29.313Z,8.11
2019-05-30T00:21:29.524Z,8.25
2019-05-30T00:22:37.491Z,8.20
2019-05-30T00:23:30.945Z,8.18
2019-05-30T00:24:33.975Z,8.25
2019-05-30T00:25:33.978Z,8.21
2019-05-30T00:26:31.452Z,8.14
2019-05-30T00:27:32.482Z,8.20
2019-05-30T00:28:30.826Z,8.17
2019-05-30T00:29:30.926Z,8.18
2019-05-30T00:30:32.981Z,8.07
2019-05-30T00:31:31.298Z,8.08
2019-05-30T00:32:31.511Z,8.14
2019-05-30T00:33:32.668Z,8.17
2019-05-30T00:34:31.885Z,8.07
2019-05-30T00:35:32.102Z,8.14
2019-05-30T00:36:34.022Z,8.03
2019-05-30T00:37:32.521Z,8.12
2019-05-30T00:38:34.477Z,8.07
2019-05-30T00:39:32.803Z,8.11
2019-05-30T00:40:36.002Z,8.08
2019-05-30T00:41:34.996Z,8.20
2019-05-30T00:42:33.322Z,8.18
2019-05-30T00:43:33.535Z,8.10
2019-05-30T00:44:33.748Z,8.04
2019-05-30T00:45:35.483Z,8.04
2019-05-30T00:46:35.998Z,8.08
2019-05-30T00:47:35.975Z,8.12
2019-05-30T00:48:36.019Z,8.12
2019-05-30T00:49:36.481Z,8.14
2019-05-30T00:50:34.848Z,8.11
2019-05-30T00:51:34.922Z,8.08
2019-05-30T00:52:36.157Z,8.14
2019-05-30T00:53:35.245Z,8.04
2019-05-30T00:54:37.010Z,8.08
2019-05-30T00:55:37.514Z,8.10
2019-05-30T00:56:37.481Z,8.04
2019-05-30T00:57:39.476Z,7.99
2019-05-30T00:58:37.973Z,7.99
2019-05-30T00:59:36.169Z,7.97
2019-05-30T01:00:43.643Z,7.94
2019-05-30T01:01:38.483Z,7.92
2019-05-30T01:02:36.811Z,7.90
2019-05-30T01:03:37.106Z,7.82
2019-05-30T01:04:37.349Z,7.87
2019-05-30T01:05:39.042Z,7.71
2019-05-30T01:06:41.537Z,7.78
2019-05-30T01:07:39.486Z,7.69
2019-05-30T01:08:41.998Z,7.63
2019-05-30T01:09:42.984Z,7.62
2019-05-30T01:10:38.321Z,7.55
2019-05-30T01:11:38.527Z,7.49
2019-05-30T01:12:40.509Z,7.49
2019-05-30T01:13:38.962Z,7.47
2019-05-30T01:14:40.999Z,7.40
2019-05-30T01:15:39.343Z,7.41
2019-05-30T01:16:42.559Z,7.40
2019-05-30T01:17:39.696Z,7.42
2019-05-30T01:18:42.516Z,7.37
2019-05-30T01:19:40.099Z,7.38
2019-05-30T01:20:41.978Z,7.34
2019-05-30T01:21:41.994Z,7.24
2019-05-30T01:22:42.490Z,7.32
2019-05-30T01:23:42.476Z,7.37
2019-05-30T01:24:40.807Z,7.31
2019-05-30T01:25:43.023Z,7.20
2019-05-30T01:26:42.985Z,7.29
2019-05-30T01:27:41.303Z,7.31
2019-05-30T01:28:43.484Z,7.27
2019-05-30T01:29:42.673Z,7.24
2019-05-30T01:30:56.835Z,7.27
2019-05-30T01:31:44.000Z,7.19
2019-05-30T01:32:49.027Z,7.24
2019-05-30T01:33:43.981Z,7.27
2019-05-30T01:34:42.443Z,7.27
2019-05-30T01:35:42.639Z,7.19
2019-05-30T01:36:42.872Z,7.19
2019-05-30T01:37:50.483Z,7.27
2019-05-30T01:38:43.175Z,7.32
2019-05-30T01:39:44.387Z,7.26
2019-05-30T01:40:47.474Z,7.32
2019-05-30T01:41:43.805Z,7.26
2019-05-30T01:42:44.007Z,7.22
2019-05-30T01:43:45.217Z,7.19
2019-05-30T01:44:44.439Z,7.19
2019-05-30T01:45:44.671Z,7.27
2019-05-30T01:46:48.504Z,7.24
2019-05-30T01:47:58.172Z,7.20
2019-05-30T01:48:46.994Z,7.20
2019-05-30T01:49:45.340Z,7.22
2019-05-30T01:50:47.505Z,7.08
2019-05-30T01:51:45.775Z,7.13
2019-05-30T01:52:47.481Z,7.15
2019-05-30T01:53:46.098Z,7.20
2019-05-30T01:54:46.267Z,7.17
2019-05-30T01:55:48.770Z,7.20
2019-05-30T01:56:46.752Z,7.22
2019-05-30T01:57:46.882Z,7.22
2019-05-30T01:58:48.099Z,7.22
2019-05-30T01:59:48.991Z,7.24
2019-05-30T02:00:47.448Z,7.31
2019-05-30T02:01:49.493Z,7.29
2019-05-30T02:02:47.870Z,7.29
2019-05-30T02:03:49.991Z,7.26
2019-05-30T02:04:48.224Z,7.19
2019-05-30T02:05:50.008Z,7.17
2019-05-30T02:06:52.504Z,7.13
2019-05-30T02:07:48.715Z,7.16
2019-05-30T02:08:50.516Z,7.12
2019-05-30T02:09:49.084Z,7.08
2019-05-30T02:10:49.279Z,7.16
2019-05-30T02:11:49.501Z,7.08
2019-05-30T02:12:49.700Z,7.01
2019-05-30T02:13:53.507Z,7.09
2019-05-30T02:14:50.081Z,7.09
2019-05-30T02:15:51.997Z,6.99
2019-05-30T02:16:50.319Z,7.08
2019-05-30T02:17:50.531Z,6.99
2019-05-30T02:18:52.480Z,6.95
2019-05-30T02:19:54.511Z,6.97
2019-05-30T02:20:51.118Z,6.99
2019-05-30T02:21:51.315Z,6.97
2019-05-30T02:22:51.520Z,6.89
2019-05-30T02:23:53.146Z,6.97
2019-05-30T02:24:53.545Z,6.80
2019-05-30T02:25:58.035Z,6.86
2019-05-30T02:26:54.703Z,6.90
2019-05-30T02:27:52.440Z,6.81
2019-05-30T02:28:54.494Z,6.87
2019-05-30T02:29:53.730Z,6.83
2019-05-30T02:30:52.789Z,6.91
2019-05-30T02:31:54.987Z,6.97
2019-05-30T02:32:55.131Z,6.90
2019-05-30T02:33:53.325Z,6.89
2019-05-30T02:34:55.011Z,6.86
2019-05-30T02:35:53.600Z,6.77
2019-05-30T02:36:53.801Z,6.81
2019-05-30T02:37:55.981Z,6.80
2019-05-30T02:38:55.995Z,6.76
2019-05-30T02:40:00.234Z,6.81
2019-05-30T02:40:54.450Z,6.80
2019-05-30T02:41:56.481Z,6.84
2019-05-30T02:42:56.486Z,6.94
2019-05-30T02:43:56.495Z,6.79
2019-05-30T02:44:56.074Z,6.83
2019-05-30T02:45:55.289Z,6.80
2019-05-30T02:46:56.516Z,6.72
2019-05-30T02:47:56.725Z,6.66
2019-05-30T02:49:00.405Z,6.66
2019-05-30T02:49:56.077Z,6.65
2019-05-30T02:50:57.988Z,6.71
2019-05-30T02:51:56.365Z,6.51
2019-05-30T02:53:13.268Z,6.47
2019-05-30T02:54:01.543Z,6.58
2019-05-30T02:54:56.801Z,6.63
2019-05-30T02:55:57.016Z,6.59
2019-05-30T02:56:57.221Z,6.53
2019-05-30T02:57:57.464Z,6.51
2019-05-30T02:58:57.636Z,6.59
2019-05-30T02:59:59.509Z,6.63
2019-05-30T03:00:59.498Z,6.61
2019-05-30T03:02:04.380Z,6.66
2019-05-30T03:03:08.690Z,6.71
2019-05-30T03:04:03.911Z,6.65
2019-05-30T03:04:58.681Z,6.65
2019-05-30T03:05:58.883Z,6.66
2019-05-30T03:07:04.089Z,6.66
2019-05-30T03:08:04.466Z,6.65
2019-05-30T03:09:01.906Z,6.58
2019-05-30T03:10:04.427Z,6.56
2019-05-30T03:11:02.428Z,6.54
2019-05-30T03:12:04.073Z,6.54
2019-05-30T03:13:01.738Z,6.51
2019-05-30T03:14:02.653Z,6.62
2019-05-30T03:15:02.578Z,6.61
2019-05-30T03:16:02.188Z,6.53
2019-05-30T03:17:02.580Z,6.53
2019-05-30T03:18:04.468Z,6.63
2019-05-30T03:19:03.724Z,6.68
2019-05-30T03:20:04.942Z,6.62
2019-05-30T03:21:05.446Z,6.62
2019-05-30T03:22:03.379Z,6.62
2019-05-30T03:23:05.772Z,6.63
2019-05-30T03:24:05.061Z,6.68
2019-05-30T03:25:03.525Z,6.71
2019-05-30T03:26:04.754Z,6.79
2019-05-30T03:27:04.800Z,6.72
2019-05-30T03:28:11.827Z,6.63
2019-05-30T03:29:05.060Z,6.76
2019-05-30T03:30:15.834Z,6.80
2019-05-30T03:31:10.438Z,6.86
2019-05-30T03:32:38.922Z,6.86
2019-05-30T03:33:16.417Z,6.69
2019-05-30T03:34:13.628Z,6.79
2019-05-30T03:35:11.046Z,6.83
2019-05-30T03:36:17.952Z,6.89
2019-05-30T03:37:08.675Z,6.76
2019-05-30T03:38:08.124Z,6.80
2019-05-30T03:39:07.676Z,6.90
2019-05-30T03:40:06.988Z,6.83
2019-05-30T03:41:09.111Z,6.81
2019-05-30T03:42:07.046Z,6.79
2019-05-30T03:43:06.086Z,6.86
2019-05-30T03:44:10.781Z,6.83
2019-05-30T03:45:10.727Z,6.98
2019-05-30T03:46:08.736Z,6.99
2019-05-30T03:47:08.717Z,6.94
2019-05-30T03:48:07.397Z,7.08
2019-05-30T03:49:08.685Z,7.07
2019-05-30T03:50:09.781Z,7.12
2019-05-30T03:51:08.879Z,7.08
2019-05-30T03:52:09.745Z,7.15
2019-05-30T03:53:09.906Z,7.22
2019-05-30T03:54:11.601Z,7.19
2019-05-30T03:55:09.956Z,7.23
2019-05-30T03:56:09.362Z,7.26
2019-05-30T03:57:11.395Z,7.19
2019-05-30T03:58:10.668Z,7.31
2019-05-30T03:59:10.795Z,7.37
2019-05-30T04:00:11.839Z,7.37
2019-05-30T04:01:09.983Z,7.49
2019-05-30T04:02:11.750Z,7.47
2019-05-30T04:03:10.934Z,7.56
2019-05-30T04:04:11.601Z,7.55
2019-05-30T04:05:11.271Z,7.67
2019-05-30T04:06:10.272Z,7.69
2019-05-30T04:07:11.969Z,7.72
2019-05-30T04:08:13.689Z,7.85
2019-05-30T04:09:11.880Z,7.94
2019-05-30T04:10:11.425Z,7.89
2019-05-30T04:11:16.603Z,7.99
2019-05-30T04:12:12.724Z,8.14
2019-05-30T04:13:15.252Z,8.20
2019-05-30T04:14:13.104Z,8.20
2019-05-30T04:15:14.420Z,8.30
2019-05-30T04:16:14.117Z,8.30
2019-05-30T04:17:13.585Z,8.33
2019-05-30T04:18:12.542Z,8.37
2019-05-30T04:19:15.494Z,8.63
2019-05-30T04:20:14.302Z,8.65
2019-05-30T04:21:18.704Z,8.71
2019-05-30T04:22:16.481Z,8.75
2019-05-30T04:23:14.677Z,8.78
2019-05-30T04:24:17.035Z,8.90
2019-05-30T04:25:14.408Z,8.93
2019-05-30T04:26:18.151Z,9.09
2019-05-30T04:27:13.899Z,9.24
2019-05-30T04:28:14.133Z,9.39
2019-05-30T04:29:16.643Z,9.30
2019-05-30T04:30:14.497Z,9.15
2019-05-30T04:31:14.588Z,9.18
2019-05-30T04:32:26.192Z,9.16
2019-05-30T04:33:26.982Z,9.38
2019-05-30T04:34:15.333Z,9.49
2019-05-30T04:35:16.626Z,9.61
2019-05-30T04:36:16.846Z,9.56
2019-05-30T04:37:17.013Z,9.68
2019-05-30T04:38:17.201Z,9.75
2019-05-30T04:39:17.199Z,9.88
2019-05-30T04:40:17.681Z,9.88
2019-05-30T04:41:18.719Z,10.03
2019-05-30T04:42:18.143Z,10.15
2019-05-30T04:43:18.020Z,10.30
2019-05-30T04:44:20.171Z,10.56
2019-05-30T04:45:20.234Z,10.44
2019-05-30T04:46:19.088Z,10.46
2019-05-30T04:47:18.508Z,10.52
2019-05-30T04:48:21.321Z,10.65
2019-05-30T04:49:21.521Z,10.76
2019-05-30T04:50:18.820Z,11.07
2019-05-30T04:51:21.709Z,10.88
2019-05-30T04:52:22.666Z,10.76
2019-05-30T04:53:18.597Z,10.59
2019-05-30T04:54:22.486Z,10.66
2019-05-30T04:55:21.051Z,10.92
2019-05-30T04:56:19.768Z,10.99
2019-05-30T04:57:25.188Z,10.91
2019-05-30T04:58:23.308Z,11.02
2019-05-30T04:59:20.320Z,10.94
2019-05-30T05:00:21.297Z,11.06
2019-05-30T05:01:21.977Z,11.31
2019-05-30T05:02:21.201Z,11.39
2019-05-30T05:03:43.415Z,11.59
2019-05-30T05:04:21.646Z,11.54
2019-05-30T05:05:26.520Z,11.56
2019-05-30T05:06:21.972Z,11.49
2019-05-30T05:07:24.024Z,11.64
2019-05-30T05:08:22.124Z,11.89
2019-05-30T05:09:25.484Z,12.02
2019-05-30T05:10:22.532Z,12.31
2019-05-30T05:11:25.076Z,12.27
2019-05-30T05:12:22.466Z,12.20
2019-05-30T05:13:23.983Z,12.08
2019-05-30T05:14:23.981Z,12.26
2019-05-30T05:15:22.854Z,12.21
2019-05-30T05:16:33.897Z,12.16
2019-05-30T05:17:23.173Z,12.27
2019-05-30T05:18:23.531Z,12.26
2019-05-30T05:19:26.218Z,12.39
2019-05-30T05:20:23.642Z,12.45
2019-05-30T05:21:23.782Z,12.44
2019-05-30T05:22:27.486Z,12.49
2019-05-30T05:23:24.205Z,12.70
2019-05-30T05:24:24.417Z,12.64
2019-05-30T05:25:24.675Z,12.78
2019-05-30T05:26:26.484Z,12.81
2019-05-30T05:27:24.931Z,12.99
2019-05-30T05:28:25.140Z,13.18
2019-05-30T05:29:25.369Z,13.18
2019-05-30T05:30:25.594Z,13.37
2019-05-30T05:31:25.762Z,13.12
2019-05-30T05:32:25.971Z,13.29
2019-05-30T05:33:27.983Z,13.55
2019-05-30T05:34:26.306Z,13.41
2019-05-30T05:35:26.522Z,13.44
2019-05-30T05:36:26.740Z,13.67
2019-05-30T05:37:27.382Z,13.91
2019-05-30T05:38:28.406Z,13.95
2019-05-30T05:39:28.364Z,13.81
2019-05-30T05:40:29.485Z,13.83
2019-05-30T05:41:28.618Z,13.87
2019-05-30T05:42:30.299Z,13.99
2019-05-30T05:43:28.702Z,13.67
2019-05-30T05:44:28.714Z,13.56
2019-05-30T05:45:28.811Z,13.59
2019-05-30T05:46:30.487Z,13.83
2019-05-30T05:47:28.963Z,14.07
2019-05-30T05:48:29.155Z,14.19
2019-05-30T05:49:29.375Z,14.39
2019-05-30T05:50:29.578Z,14.39
2019-05-30T05:51:29.872Z,14.67
2019-05-30T05:52:29.950Z,14.72
2019-05-30T05:53:30.163Z,15.01
2019-05-30T05:54:30.387Z,14.90
2019-05-30T05:55:30.595Z,15.11
2019-05-30T05:56:30.804Z,15.36
2019-05-30T05:57:31.007Z,15.59
2019-05-30T05:58:31.228Z,15.72
2019-05-30T05:59:31.460Z,15.92
2019-05-30T06:00:31.659Z,16.11
2019-05-30T06:01:31.873Z,16.15
2019-05-30T06:02:34.012Z,16.27
2019-05-30T06:03:35.031Z,16.59
2019-05-30T06:04:32.378Z,16.50
2019-05-30T06:05:34.540Z,16.42
2019-05-30T06:06:36.521Z,16.63
2019-05-30T06:07:32.976Z,17.00
2019-05-30T06:08:33.197Z,17.50
2019-05-30T06:09:33.474Z,17.81
2019-05-30T06:10:33.529Z,18.09
2019-05-30T06:11:41.517Z,18.13
2019-05-30T06:12:37.486Z,18.43
2019-05-30T06:13:34.062Z,18.86
2019-05-30T06:14:34.276Z,19.08
2019-05-30T06:15:34.490Z,19.32
2019-05-30T06:16:34.694Z,19.33
2019-05-30T06:17:34.961Z,19.58
2019-05-30T06:18:40.057Z,19.80
2019-05-30T06:19:45.908Z,20.05
2019-05-30T06:20:35.553Z,20.41
2019-05-30T06:21:51.064Z,20.81
2019-05-30T06:23:00.711Z,21.02
2019-05-30T06:23:37.021Z,21.35
2019-05-30T06:24:36.251Z,21.54
2019-05-30T06:25:36.486Z,21.88
2019-05-30T06:26:38.516Z,22.27
2019-05-30T06:27:36.762Z,22.38
2019-05-30T06:28:38.565Z,22.37
2019-05-30T06:29:39.015Z,22.68
2019-05-30T06:30:39.442Z,22.60
2019-05-30T06:31:59.575Z,22.87
2019-05-30T06:33:02.566Z,23.24
2019-05-30T06:33:37.900Z,23.23
2019-05-30T06:34:39.547Z,23.32
2019-05-30T06:35:42.203Z,23.39
2019-05-30T06:39:49.839Z,23.42
2019-05-30T06:42:17.598Z,23.71
2019-05-30T06:43:17.072Z,23.52
2019-05-30T06:44:17.043Z,23.47
2019-05-30T06:45:17.542Z,23.65
2019-05-30T06:46:22.116Z,23.82
2019-05-30T06:47:17.620Z,23.85
2019-05-30T06:48:18.203Z,24.20
2019-05-30T06:49:18.158Z,23.82
2019-05-30T06:50:18.125Z,23.60
2019-05-30T06:51:18.596Z,23.09
2019-05-30T06:52:17.020Z,23.01
2019-05-30T06:53:18.164Z,23.20
2019-05-30T06:54:18.516Z,23.17
2019-05-30T06:55:19.118Z,23.22
2019-05-30T06:56:21.571Z,23.24
2019-05-30T06:57:19.625Z,23.31
2019-05-30T06:58:19.068Z,23.77
2019-05-30T06:59:41.967Z,24.17
2019-05-30T07:00:20.088Z,23.58
2019-05-30T07:01:21.836Z,24.14
2019-05-30T07:02:18.955Z,24.01
2019-05-30T07:03:19.071Z,24.27
2019-05-30T07:04:19.557Z,24.71
2019-05-30T07:05:23.054Z,25.07
2019-05-30T07:06:20.137Z,25.07
2019-05-30T07:07:25.036Z,25.01
2019-05-30T07:08:21.058Z,25.27
2019-05-30T07:09:20.217Z,25.25
2019-05-30T07:10:22.605Z,25.19
2019-05-30T07:11:24.709Z,25.24
2019-05-30T07:12:22.808Z,25.47
2019-05-30T07:13:23.267Z,25.71
2019-05-30T07:14:25.276Z,24.20
2019-05-30T07:15:21.199Z,23.58
2019-05-30T07:16:23.582Z,24.26
2019-05-30T07:17:25.254Z,24.04
2019-05-30T07:18:21.634Z,23.61
2019-05-30T07:19:23.578Z,24.01
2019-05-30T07:20:23.593Z,24.24
2019-05-30T07:21:23.483Z,24.12
2019-05-30T07:22:23.473Z,24.04
2019-05-30T07:23:25.757Z,24.01
2019-05-30T07:24:25.615Z,23.92
2019-05-30T07:25:38.625Z,23.38
2019-05-30T07:26:26.013Z,23.72
2019-05-30T07:27:26.044Z,23.98
2019-05-30T07:28:25.732Z,24.77
2019-05-30T07:29:28.015Z,25.09
2019-05-30T07:30:25.872Z,24.60
2019-05-30T07:31:24.204Z,24.61
2019-05-30T07:32:24.281Z,24.59
2019-05-30T07:33:45.573Z,25.12
2019-05-30T07:34:48.619Z,24.49
2019-05-30T07:35:27.964Z,24.49
2019-05-30T07:36:28.523Z,24.61
2019-05-30T07:37:30.196Z,24.14
2019-05-30T07:38:27.074Z,24.35
2019-05-30T07:39:41.845Z,24.77
2019-05-30T07:40:28.695Z,25.22
2019-05-30T07:41:26.859Z,25.17
2019-05-30T07:42:26.563Z,25.28
2019-05-30T07:43:29.939Z,25.34
2019-05-30T07:44:29.081Z,25.42
2019-05-30T07:45:26.841Z,25.01
2019-05-30T07:46:27.026Z,25.24
2019-05-30T07:47:28.248Z,25.47
2019-05-30T07:48:30.086Z,25.27
2019-05-30T07:49:30.408Z,25.25
2019-05-30T07:50:30.464Z,25.13
2019-05-30T07:51:28.496Z,25.43
2019-05-30T07:52:32.623Z,25.12
2019-05-30T07:53:31.019Z,25.24
2019-05-30T07:54:33.532Z,25.35
2019-05-30T07:55:31.018Z,25.75
2019-05-30T07:56:31.017Z,26.11
2019-05-30T07:57:29.986Z,25.74
2019-05-30T07:58:33.449Z,25.54
2019-05-30T07:59:30.326Z,25.47
2019-05-30T08:00:31.418Z,25.75
2019-05-30T08:01:32.561Z,25.56
2019-05-30T08:02:33.676Z,25.49
2019-05-30T08:03:34.701Z,25.31
2019-05-30T08:04:32.573Z,25.90
2019-05-30T08:05:32.655Z,25.98
2019-05-30T08:06:32.101Z,25.75
2019-05-30T08:07:36.671Z,25.39
2019-05-30T08:08:32.477Z,25.07
2019-05-30T08:09:31.314Z,25.32
2019-05-30T08:10:38.173Z,25.67
2019-05-30T08:11:31.549Z,25.54
2019-05-30T08:12:34.125Z,25.64
2019-05-30T08:13:35.260Z,25.62
2019-05-30T08:14:33.568Z,25.24
2019-05-30T08:15:33.476Z,25.61
2019-05-30T08:16:35.373Z,25.61
2019-05-30T08:17:33.691Z,25.35
2019-05-30T08:18:35.753Z,25.30
2019-05-30T08:19:34.305Z,25.32
2019-05-30T08:20:34.314Z,25.20
2019-05-30T08:21:38.072Z,24.82
2019-05-30T08:22:36.171Z,24.49
2019-05-30T08:23:34.231Z,23.98
2019-05-30T08:24:49.568Z,23.94
2019-05-30T08:25:38.496Z,24.24
2019-05-30T08:26:36.408Z,24.53
2019-05-30T08:27:36.403Z,24.80
2019-05-30T08:28:34.670Z,24.98
2019-05-30T08:29:34.895Z,25.02
2019-05-30T08:30:37.094Z,24.38
2019-05-30T08:31:36.885Z,24.24
2019-05-30T08:32:43.024Z,23.32
2019-05-30T08:33:37.639Z,23.32
2019-05-30T08:34:37.133Z,23.34
2019-05-30T08:35:46.903Z,24.04
2019-05-30T08:36:40.072Z,24.54
2019-05-30T08:37:37.323Z,24.87
2019-05-30T08:38:39.534Z,24.95
2019-05-30T08:39:37.393Z,24.29
2019-05-30T08:40:39.574Z,24.97
2019-05-30T08:41:39.538Z,24.82
2019-05-30T08:42:40.268Z,24.23
2019-05-30T08:43:39.771Z,24.67
2019-05-30T08:44:40.148Z,25.02
2019-05-30T08:45:41.593Z,25.37
2019-05-30T08:46:38.094Z,25.75
2019-05-30T08:47:40.628Z,25.46
2019-05-30T08:48:40.651Z,25.49
2019-05-30T08:49:45.071Z,25.77
2019-05-30T08:50:44.751Z,25.93
2019-05-30T08:51:40.493Z,26.32
2019-05-30T08:52:41.197Z,26.18
2019-05-30T08:53:40.678Z,25.56
2019-05-30T08:54:41.579Z,25.68
2019-05-30T08:55:41.593Z,25.50
2019-05-30T08:56:40.677Z,25.35
2019-05-30T08:57:42.147Z,25.28
2019-05-30T08:58:44.144Z,25.49
2019-05-30T08:59:44.699Z,25.75
2019-05-30T09:00:42.868Z,25.75
2019-05-30T09:01:56.683Z,25.87
2019-05-30T09:02:41.184Z,25.65
2019-05-30T09:03:44.147Z,25.24
2019-05-30T09:04:43.979Z,25.30
2019-05-30T09:05:58.156Z,24.77
2019-05-30T09:06:44.591Z,24.27
2019-05-30T09:07:44.490Z,24.60
2019-05-30T09:08:58.128Z,24.83
2019-05-30T09:09:49.610Z,25.39
2019-05-30T09:10:46.845Z,25.94
2019-05-30T09:11:48.118Z,25.90
2019-05-30T09:12:49.479Z,25.42
2019-05-30T09:13:44.682Z,25.46
2019-05-30T09:14:46.844Z,26.18
2019-05-30T09:15:46.968Z,25.06
2019-05-30T09:16:46.583Z,25.20
2019-05-30T09:17:44.809Z,24.97
2019-05-30T09:18:47.294Z,24.91
2019-05-30T09:19:51.594Z,24.76
2019-05-30T09:20:47.434Z,24.32
2019-05-30T09:21:47.484Z,23.77
2019-05-30T09:22:45.595Z,23.35
2019-05-30T09:23:46.207Z,23.62
2019-05-30T09:24:47.948Z,23.22
2019-05-30T09:25:49.412Z,23.01
2019-05-30T09:26:50.309Z,23.75
2019-05-30T09:27:48.365Z,24.37
2019-05-30T09:28:48.285Z,24.34
2019-05-30T09:29:50.126Z,23.90
2019-05-30T09:30:49.608Z,23.34
2019-05-30T09:31:48.770Z,23.09
2019-05-30T09:32:50.045Z,22.57
2019-05-30T09:33:49.059Z,22.72
2019-05-30T09:34:50.136Z,22.67
2019-05-30T09:35:49.108Z,22.56
2019-05-30T09:36:49.544Z,22.22
2019-05-30T09:37:50.079Z,22.14
2019-05-30T09:38:50.142Z,22.09
2019-05-30T09:39:49.447Z,22.53
2019-05-30T09:40:50.641Z,23.02
2019-05-30T09:41:52.602Z,22.82
2019-05-30T09:42:50.922Z,23.11
2019-05-30T09:43:51.408Z,23.26
2019-05-30T09:45:14.090Z,22.96
2019-05-30T09:45:51.646Z,22.83
2019-05-30T09:46:51.292Z,23.01
2019-05-30T09:47:52.557Z,23.05
2019-05-30T09:48:53.053Z,23.04
2019-05-30T09:49:52.136Z,22.87
2019-05-30T09:50:51.503Z,22.57
2019-05-30T09:51:55.629Z,22.46
2019-05-30T09:52:55.679Z,22.50
2019-05-30T09:53:54.925Z,22.54
2019-05-30T09:55:07.085Z,22.69
2019-05-30T09:55:54.099Z,22.86
2019-05-30T09:56:58.084Z,22.92
2019-05-30T09:59:29.935Z,22.69
2019-05-30T10:00:25.184Z,22.86
2019-05-30T10:01:26.001Z,22.69
2019-05-30T10:02:28.394Z,22.65
2019-05-30T10:03:28.435Z,22.90
2019-05-30T10:04:26.926Z,23.24
2019-05-30T10:05:33.008Z,23.46
2019-05-30T10:06:29.520Z,24.04
2019-05-30T10:07:26.434Z,24.83
2019-05-30T10:08:27.452Z,24.88
2019-05-30T10:09:25.661Z,24.87
2019-05-30T10:10:25.905Z,24.20
2019-05-30T10:11:28.891Z,23.68
2019-05-30T10:12:30.907Z,23.61
2019-05-30T10:13:26.397Z,23.55
2019-05-30T10:14:28.450Z,23.62
2019-05-30T10:15:28.439Z,23.92
2019-05-30T10:16:30.959Z,24.19
2019-05-30T10:17:30.095Z,24.20
2019-05-30T10:18:44.257Z,24.08
2019-05-30T10:19:27.620Z,23.87
2019-05-30T10:20:27.830Z,23.64
2019-05-30T10:21:39.045Z,23.24
2019-05-30T10:22:28.902Z,23.24
2019-05-30T10:23:28.378Z,23.19
2019-05-30T10:24:28.591Z,23.46
2019-05-30T10:25:28.801Z,23.45
2019-05-30T10:26:33.665Z,23.67
2019-05-30T10:27:29.908Z,23.76
2019-05-30T10:28:35.959Z,23.92
2019-05-30T10:29:29.610Z,23.94
2019-05-30T10:30:31.447Z,24.19
2019-05-30T10:31:32.417Z,24.47
2019-05-30T10:32:32.531Z,24.69
2019-05-30T10:33:33.689Z,24.57
2019-05-30T10:34:30.514Z,24.97
2019-05-30T10:35:34.454Z,25.17
2019-05-30T10:36:43.834Z,25.13
2019-05-30T10:37:34.013Z,25.10
2019-05-30T10:38:33.307Z,25.15
2019-05-30T10:39:36.412Z,25.09
2019-05-30T10:40:32.685Z,25.22
2019-05-30T10:41:32.487Z,25.13
2019-05-30T10:42:33.947Z,25.13
2019-05-30T10:43:33.947Z,25.10
2019-05-30T10:44:32.316Z,24.85
2019-05-30T10:45:34.476Z,24.91
2019-05-30T10:46:38.399Z,25.01
2019-05-30T10:47:36.441Z,25.12
2019-05-30T10:48:36.954Z,25.02
2019-05-30T10:49:35.329Z,25.05
2019-05-30T10:50:46.897Z,25.19
2019-05-30T10:51:40.448Z,24.57
2019-05-30T10:52:55.622Z,23.72
2019-05-30T10:53:37.201Z,23.67
2019-05-30T10:54:41.961Z,23.53
2019-05-30T10:55:34.336Z,23.85
2019-05-30T10:56:34.437Z,23.82
2019-05-30T10:57:39.398Z,23.97
2019-05-30T10:58:35.898Z,23.80
2019-05-30T10:59:51.049Z,23.42
2019-05-30T11:00:35.191Z,23.47
2019-05-30T11:01:36.333Z,23.34
2019-05-30T11:02:35.465Z,23.68
2019-05-30T11:03:37.444Z,23.89
2019-05-30T11:04:36.481Z,24.14
2019-05-30T11:05:36.014Z,24.44
2019-05-30T11:07:04.927Z,25.06
2019-05-30T11:07:52.866Z,25.13
2019-05-30T11:08:37.401Z,25.56
2019-05-30T11:09:38.489Z,25.80
2019-05-30T11:10:40.449Z,25.53
2019-05-30T11:11:52.947Z,25.43
2019-05-30T11:12:37.211Z,25.25
2019-05-30T11:13:39.711Z,25.22
2019-05-30T11:14:43.471Z,25.24
2019-05-30T11:15:51.616Z,25.27
2019-05-30T11:16:40.922Z,25.22
2019-05-30T11:17:39.966Z,24.67
2019-05-30T11:18:45.947Z,24.68
2019-05-30T11:19:51.770Z,24.75
2019-05-30T11:20:38.557Z,24.59
2019-05-30T11:21:43.249Z,24.52
2019-05-30T11:22:39.036Z,24.54
2019-05-30T11:23:39.947Z,24.53
2019-05-30T11:24:43.956Z,24.67
2019-05-30T11:25:40.949Z,24.52
2019-05-30T11:26:48.775Z,24.16
2019-05-30T11:27:41.458Z,24.14
2019-05-30T11:28:40.047Z,24.37
2019-05-30T11:29:44.017Z,24.50
2019-05-30T11:30:42.988Z,24.52
2019-05-30T11:31:42.458Z,24.67
2019-05-30T11:32:43.437Z,24.92
2019-05-30T11:34:03.967Z,25.01
2019-05-30T11:35:03.993Z,24.94
2019-05-30T11:37:18.305Z,24.95
2019-05-30T11:37:43.505Z,25.01
2019-05-30T11:38:41.971Z,24.97
2019-05-30T11:39:43.181Z,24.88
2019-05-30T11:41:05.017Z,24.64
2019-05-30T11:41:42.605Z,24.59
2019-05-30T11:42:44.481Z,24.39
2019-05-30T11:43:59.671Z,24.53
2019-05-30T11:44:51.421Z,24.31
2019-05-30T11:45:45.330Z,24.45
2019-05-30T11:46:43.639Z,24.68
2019-05-30T11:47:46.952Z,24.52
2019-05-30T11:48:43.952Z,24.52
2019-05-30T11:49:44.181Z,24.31
2019-05-30T11:50:46.012Z,23.92
2019-05-30T11:51:45.644Z,23.45
2019-05-30T11:52:53.685Z,23.32
2019-05-30T11:53:45.017Z,23.12
2019-05-30T11:54:49.851Z,23.26
2019-05-30T11:55:47.463Z,23.29
2019-05-30T11:56:47.723Z,23.24
2019-05-30T11:57:47.454Z,23.17
2019-05-30T11:58:47.954Z,23.19
2019-05-30T11:59:50.327Z,23.26
2019-05-30T12:00:47.969Z,23.15
2019-05-30T12:01:50.501Z,23.27
2019-05-30T12:02:46.748Z,23.19
2019-05-30T12:03:54.529Z,23.19
2019-05-30T12:06:19.227Z,23.11
2019-05-30T12:07:36.259Z,23.14
2019-05-30T12:08:26.231Z,23.12
2019-05-30T12:09:19.588Z,22.96
2019-05-30T12:10:21.217Z,22.87
2019-05-30T12:11:32.726Z,22.89
2019-05-30T12:12:23.839Z,22.90
2019-05-30T12:13:24.217Z,22.96
2019-05-30T12:14:25.240Z,23.11
2019-05-30T12:15:22.665Z,23.23
2019-05-30T12:16:22.715Z,23.17
2019-05-30T12:17:22.755Z,23.27
2019-05-30T12:18:58.216Z,23.12
2019-05-30T12:19:21.445Z,22.94
2019-05-30T12:20:23.222Z,22.99
2019-05-30T12:21:22.468Z,22.78
2019-05-30T12:22:23.054Z,22.69
2019-05-30T12:23:23.168Z,22.65
2019-05-30T12:24:44.343Z,22.75
2019-05-30T12:25:24.247Z,22.83
2019-05-30T12:26:34.626Z,22.97
2019-05-30T12:27:22.906Z,23.11
2019-05-30T12:28:22.950Z,23.15
2019-05-30T12:29:26.685Z,23.15
2019-05-30T12:30:55.778Z,22.71
2019-05-30T12:31:31.285Z,22.65
2019-05-30T12:32:25.266Z,22.57
2019-05-30T12:33:24.843Z,22.53
2019-05-30T12:34:24.145Z,22.47
2019-05-30T12:35:25.750Z,22.41
2019-05-30T12:36:26.218Z,22.49
2019-05-30T12:37:50.255Z,22.34
2019-05-30T12:38:32.668Z,22.53
2019-05-30T12:40:58.839Z,22.68
2019-05-30T12:41:59.038Z,22.96
2019-05-30T12:43:03.056Z,22.93
2019-05-30T12:44:01.427Z,23.04
2019-05-30T12:44:57.693Z,23.31
2019-05-30T12:46:01.268Z,23.31
2019-05-30T12:47:59.313Z,23.34
2019-05-30T12:48:59.507Z,23.46
2019-05-30T12:50:01.434Z,23.47
2019-05-30T12:51:01.449Z,23.64
2019-05-30T12:52:00.602Z,23.76
2019-05-30T12:53:03.338Z,23.70
2019-05-30T12:54:00.463Z,23.46
2019-05-30T12:55:08.293Z,23.29
2019-05-30T12:56:07.674Z,23.38
2019-05-30T12:57:00.705Z,23.39
2019-05-30T12:58:02.846Z,23.26
2019-05-30T12:59:04.391Z,23.60
2019-05-30T13:00:09.694Z,23.26
2019-05-30T13:01:03.649Z,23.17
2019-05-30T13:02:16.662Z,23.12
2019-05-30T13:03:03.182Z,23.15
2019-05-30T13:04:03.301Z,23.22
2019-05-30T13:05:05.212Z,23.35
2019-05-30T13:06:01.653Z,23.27
2019-05-30T13:07:05.678Z,23.23
2019-05-30T13:08:17.764Z,23.23
2019-05-30T13:09:03.300Z,22.94
2019-05-30T13:10:10.325Z,22.87
2019-05-30T13:11:03.954Z,22.34
2019-05-30T13:12:03.038Z,21.94
2019-05-30T13:13:06.072Z,21.76
2019-05-30T13:14:03.310Z,21.71
2019-05-30T13:15:03.836Z,21.74